Time;durP1;ratioP1;P1;durP2;ratioP2;P2;SDS_P1;SDS_P2;PMS_P1;PMS_P2;Temp;Humidity;BMP_temperature;BMP_pressure;BME280_temperature;BME280_humidity;BME280_pressure;Samples;Min_cycle;Max_cycle;Signal;HPM_P1;HPM_P2
2023/01/15 00:00:52;;;;;;;;;;;;;;;;;;5079433;28;19962;-64
2023/01/15 00:03:18;;;;;;;;;;;;;;;;;;5076742;28;19912;-64
2023/01/15 00:05:43;;;;;;;;;;;;;;;;;;5073799;28;19912;-64
2023/01/15 00:08:08;;;;;;;;;;;;;;;;;;5072260;28;19977;-64
2023/01/15 00:10:33;;;;;;;;;;;;;;;;;;5078098;28;19921;-63
2023/01/15 00:12:58;;;;;;;;;;;;;;;;;;5090358;28;19978;-63
2023/01/15 00:15:23;;;;;;;;;;;;;;;;;;5073813;28;20284;-64
2023/01/15 00:17:48;;;;;;;;;;;;;;;;;;5080323;28;19916;-63
2023/01/15 00:20:14;;;;;;;;;;;;;;;;;;5073166;28;20007;-63
2023/01/15 00:22:39;;;;;;;;;;;;;;;;;;5074161;28;19962;-63
2023/01/15 00:27:48;;;;;;;;;;;;;;;;;;5081924;28;19923;-64
2023/01/15 00:30:13;;;;;;;;;;;;;;;;;;5071804;28;20357;-65
2023/01/15 00:32:38;;;;;;;;;;;;;;;;;;5077406;28;20306;-65
2023/01/15 00:35:04;;;;;;;;;;;;;;;;;;5057114;28;19919;-65
2023/01/15 00:37:29;;;;;;;;;;;;;;;;;;5068682;28;19913;-64
2023/01/15 00:39:54;;;;;;;;;;;;;;;;;;5073585;28;19925;-64
2023/01/15 00:42:19;;;;;;;;;;;;;;;;;;5086706;28;19920;-64
2023/01/15 00:44:45;;;;;;;;;;;;;;;;;;5079154;28;19971;-64
2023/01/15 00:47:13;;;;;;;;;;;;;;;;;;5082269;28;20288;-64
2023/01/15 00:49:38;;;;;;;;;;;;;;;;;;5078176;28;19916;-63
2023/01/15 00:52:04;;;;;;;;;;;;;;;;;;5081607;28;20368;-64
2023/01/15 00:54:29;;;;;;;;;;;;;;;;;;5078970;28;19912;-65
2023/01/15 00:56:54;;;;;;;;;;;;;;;;;;5067470;28;19912;-64
2023/01/15 00:59:19;;;;;;;;;;;;;;;;;;5071259;28;20011;-64
2023/01/15 01:01:44;;;;;;;;;;;;;;;;;;5071095;28;19916;-63
2023/01/15 01:04:09;;;;;;;;;;;;;;;;;;5063319;28;19912;-63
2023/01/15 01:06:34;;;;;;;;;;;;;;;;;;5071741;28;19919;-65
2023/01/15 01:08:59;;;;;;;;;;;;;;;;;;5075699;28;19965;-63
2023/01/15 01:11:25;;;;;;;;;;;;;;;;;;5064863;28;19908;-63
2023/01/15 01:13:50;;;;;;;;;;;;;;;;;;5073549;28;19916;-63
2023/01/15 01:16:15;;;;;;;;;;;;;;;;;;5088826;28;19998;-65
2023/01/15 01:18:41;;;;;;;;;;;;;;;;;;5093743;28;19908;-63
2023/01/15 01:21:06;;;;;;;;;;;;;;;;;;5071767;28;19912;-64
2023/01/15 01:23:31;;;;;;;;;;;;;;;;;;5053688;28;19912;-64
2023/01/15 01:25:56;;;;;;;;;;;;;;;;;;5072526;28;19923;-64
2023/01/15 01:28:21;;;;;;;;;;;;;;;;;;5072481;28;19955;-64
2023/01/15 01:30:46;;;;;;;;;;;;;;;;;;5070693;28;20303;-64
2023/01/15 01:33:12;;;;;;;;;;;;;;;;;;5072193;28;20015;-65
2023/01/15 01:35:37;;;;;;;;;;;;;;;;;;5053546;28;19923;-63
2023/01/15 01:38:02;;;;;;;;;;;;;;;;;;5070784;28;19981;-63
2023/01/15 01:40:28;;;;;;;;;;;;;;;;;;5072521;28;19925;-63
2023/01/15 01:42:53;;;;;;;;;;;;;;;;;;5069237;28;20281;-64
2023/01/15 01:45:18;;;;;;;;;;;;;;;;;;5073031;28;20011;-63
2023/01/15 01:47:43;;;;;;;;;;;;;;;;;;5071102;28;20292;-65
2023/01/15 01:50:08;;;;;;;;;;;;;;;;;;5072899;28;19913;-64
2023/01/15 01:52:34;;;;;;;;;;;;;;;;;;5069989;28;19921;-64
2023/01/15 01:54:59;;;;;;;;;;;;;;;;;;5069004;28;19912;-63
2023/01/15 01:57:24;;;;;;;;;;;;;;;;;;5068620;28;19912;-64
2023/01/15 01:59:49;;;;;;;;;;;;;;;;;;5054153;28;20318;-63
2023/01/15 02:02:14;;;;;;;;;;;;;;;;;;5069283;28;20292;-63
2023/01/15 02:04:39;;;;;;;;;;;;;;;;;;5054523;28;19974;-64
2023/01/15 02:07:04;;;;;;;;;;;;;;;;;;5069491;28;19931;-64
2023/01/15 02:09:30;;;;;;;;;;;;;;;;;;5074844;28;20012;-64
2023/01/15 02:11:55;;;;;;;;;;;;;;;;;;5054461;28;19909;-64
2023/01/15 02:14:21;;;;;;;;;;;;;;;;;;5069143;28;19962;-63
2023/01/15 02:16:46;;;;;;;;;;;;;;;;;;5070846;28;20043;-64
2023/01/15 02:19:11;;;;;;;;;;;;;;;;;;5070930;28;19909;-63
2023/01/15 02:21:36;;;;;;;;;;;;;;;;;;5054357;28;19967;-64
2023/01/15 02:24:02;;;;;;;;;;;;;;;;;;5067052;28;19931;-63
2023/01/15 02:26:27;;;;;;;;;;;;;;;;;;5071079;28;19940;-65
2023/01/15 02:28:52;;;;;;;;;;;;;;;;;;5071341;28;19931;-64
2023/01/15 02:31:17;;;;;;;;;;;;;;;;;;5072040;28;20006;-63
2023/01/15 02:33:42;;;;;;;;;;;;;;;;;;5070109;28;19962;-63
2023/01/15 02:36:07;;;;;;;;;;;;;;;;;;5069175;28;20137;-63
2023/01/15 02:38:32;;;;;;;;;;;;;;;;;;5077703;28;19957;-63
2023/01/15 02:40:57;;;;;;;;;;;;;;;;;;5067714;28;19916;-62
2023/01/15 02:43:23;;;;;;;;;;;;;;;;;;5072877;28;19920;-63
2023/01/15 02:45:48;;;;;;;;;;;;;;;;;;5068016;28;20442;-62
2023/01/15 02:48:13;;;;;;;;;;;;;;;;;;5070783;28;19919;-64
2023/01/15 02:50:38;;;;;;;;;;;;;;;;;;5072046;28;19962;-64
2023/01/15 02:53:04;;;;;;;;;;;;;;;;;;5071735;28;19965;-64
2023/01/15 02:55:29;;;;;;;;;;;;;;;;;;5073828;28;19919;-64
2023/01/15 02:57:54;;;;;;;;;;;;;;;;;;5069063;28;19916;-64
2023/01/15 03:00:19;;;;;;;;;;;;;;;;;;5071468;28;20395;-64
2023/01/15 03:02:45;;;;;;;;;;;;;;;;;;5073592;28;19916;-64
2023/01/15 03:05:10;;;;;;;;;;;;;;;;;;5062673;28;19927;-63
2023/01/15 03:07:35;;;;;;;;;;;;;;;;;;5069034;28;19913;-63
2023/01/15 03:10:00;;;;;;;;;;;;;;;;;;5070668;28;20372;-62
2023/01/15 03:12:25;;;;;;;;;;;;;;;;;;5082904;28;20364;-63
2023/01/15 03:14:50;;;;;;;;;;;;;;;;;;5084451;28;20399;-64
2023/01/15 03:17:15;;;;;;;;;;;;;;;;;;5077495;28;19912;-64
2023/01/15 03:19:41;;;;;;;;;;;;;;;;;;5075642;28;19909;-63
2023/01/15 03:22:06;;;;;;;;;;;;;;;;;;5056891;28;20301;-64
2023/01/15 03:24:31;;;;;;;;;;;;;;;;;;5058157;28;20369;-64
2023/01/15 03:26:57;;;;;;;;;;;;;;;;;;5056095;28;19959;-64
2023/01/15 03:29:22;;;;;;;;;;;;;;;;;;5074013;28;20011;-63
2023/01/15 03:31:48;;;;;;;;;;;;;;;;;;5074871;28;20368;-64
2023/01/15 03:34:13;;;;;;;;;;;;;;;;;;5075871;28;19953;-63
2023/01/15 03:36:39;;;;;;;;;;;;;;;;;;5070373;28;20281;-64
2023/01/15 03:39:04;;;;;;;;;;;;;;;;;;5087159;28;20367;-64
2023/01/15 03:41:29;;;;;;;;;;;;;;;;;;5080554;28;20015;-64
2023/01/15 03:43:54;;;;;;;;;;;;;;;;;;5075040;28;20283;-64
2023/01/15 03:46:19;;;;;;;;;;;;;;;;;;5063653;28;19912;-64
2023/01/15 03:48:44;;;;;;;;;;;;;;;;;;5074585;28;19913;-64
2023/01/15 03:51:10;;;;;;;;;;;;;;;;;;5074354;28;19912;-64
2023/01/15 03:53:35;;;;;;;;;;;;;;;;;;5075127;28;19978;-64
2023/01/15 03:56:00;;;;;;;;;;;;;;;;;;5074686;28;19912;-64
2023/01/15 03:58:25;;;;;;;;;;;;;;;;;;5073670;28;19912;-64
2023/01/15 04:00:50;;;;;;;;;;;;;;;;;;5074222;28;19912;-63
2023/01/15 04:03:15;;;;;;;;;;;;;;;;;;5075160;28;20276;-63
2023/01/15 04:05:40;;;;;;;;;;;;;;;;;;5073213;28;19936;-63
2023/01/15 04:08:05;;;;;;;;;;;;;;;;;;5071691;28;19917;-64
2023/01/15 04:10:31;;;;;;;;;;;;;;;;;;5081053;28;19920;-64
2023/01/15 04:12:56;;;;;;;;;;;;;;;;;;5083301;28;20488;-64
2023/01/15 04:15:21;;;;;;;;;;;;;;;;;;5084214;28;20280;-64
2023/01/15 04:17:46;;;;;;;;;;;;;;;;;;5094701;28;20392;-64
2023/01/15 04:20:11;;;;;;;;;;;;;;;;;;5073041;28;19913;-64
2023/01/15 04:22:36;;;;;;;;;;;;;;;;;;5074415;28;20464;-64
2023/01/15 04:25:02;;;;;;;;;;;;;;;;;;5073640;28;19909;-63
2023/01/15 04:27:27;;;;;;;;;;;;;;;;;;5061756;28;19916;-64
2023/01/15 04:29:52;;;;;;;;;;;;;;;;;;5071102;28;19919;-64
2023/01/15 04:32:17;;;;;;;;;;;;;;;;;;5073415;28;19919;-64
2023/01/15 04:34:42;;;;;;;;;;;;;;;;;;5074583;28;20003;-64
2023/01/15 04:37:07;;;;;;;;;;;;;;;;;;5052880;28;19955;-64
2023/01/15 04:39:33;;;;;;;;;;;;;;;;;;5071439;28;19932;-64
2023/01/15 04:44:42;;;;;;;;;;;;;;;;;;5055382;28;20046;-64
2023/01/15 04:47:07;;;;;;;;;;;;;;;;;;5064947;28;19944;-64
2023/01/15 04:49:32;;;;;;;;;;;;;;;;;;5055434;28;19920;-63
2023/01/15 04:51:57;;;;;;;;;;;;;;;;;;5073947;28;20015;-64
2023/01/15 04:54:23;;;;;;;;;;;;;;;;;;5073840;28;19908;-64
2023/01/15 04:56:49;;;;;;;;;;;;;;;;;;5073605;28;20003;-63
2023/01/15 04:59:14;;;;;;;;;;;;;;;;;;5072507;28;19912;-63
2023/01/15 05:01:39;;;;;;;;;;;;;;;;;;5069730;28;20003;-64
2023/01/15 05:04:04;;;;;;;;;;;;;;;;;;5073084;28;19913;-63
2023/01/15 05:06:32;;;;;;;;;;;;;;;;;;5070005;28;19924;-63
2023/01/15 05:08:57;;;;;;;;;;;;;;;;;;5072586;28;19916;-63
2023/01/15 05:11:23;;;;;;;;;;;;;;;;;;5075274;28;19913;-64
2023/01/15 05:13:48;;;;;;;;;;;;;;;;;;5049666;28;19960;-64
2023/01/15 05:16:13;;;;;;;;;;;;;;;;;;5073576;28;19908;-63
2023/01/15 05:18:38;;;;;;;;;;;;;;;;;;5072352;28;19966;-64
2023/01/15 05:21:03;;;;;;;;;;;;;;;;;;5071051;28;19919;-63
2023/01/15 05:23:28;;;;;;;;;;;;;;;;;;5071028;28;19927;-63
2023/01/15 05:25:54;;;;;;;;;;;;;;;;;;5073100;28;19912;-63
2023/01/15 05:28:19;;;;;;;;;;;;;;;;;;5054291;28;19919;-63
2023/01/15 05:30:44;;;;;;;;;;;;;;;;;;5071380;28;19919;-64
2023/01/15 05:33:09;;;;;;;;;;;;;;;;;;5079158;28;19923;-63
2023/01/15 05:35:34;;;;;;;;;;;;;;;;;;5081946;28;19946;-64
2023/01/15 05:37:59;;;;;;;;;;;;;;;;;;5072028;28;19916;-63
2023/01/15 05:40:25;;;;;;;;;;;;;;;;;;5074720;28;19926;-64
2023/01/15 05:42:50;;;;;;;;;;;;;;;;;;5075480;28;19920;-63
2023/01/15 05:45:15;;;;;;;;;;;;;;;;;;5078482;28;19965;-63
2023/01/15 05:47:40;;;;;;;;;;;;;;;;;;5093208;28;20486;-63
2023/01/15 05:50:05;;;;;;;;;;;;;;;;;;5072883;28;20327;-63
2023/01/15 05:52:32;;;;;;;;;;;;;;;;;;5062439;28;20216;-63
2023/01/15 05:54:57;;;;;;;;;;;;;;;;;;5070141;28;19916;-63
2023/01/15 05:57:22;;;;;;;;;;;;;;;;;;5069180;28;19916;-63
2023/01/15 05:59:49;;;;;;;;;;;;;;;;;;5070941;28;19917;-63
2023/01/15 06:02:14;;;;;;;;;;;;;;;;;;5072708;28;19954;-63
2023/01/15 06:04:39;;;;;;;;;;;;;;;;;;5070227;28;19943;-63
2023/01/15 06:07:04;;;;;;;;;;;;;;;;;;5070523;28;19912;-63
2023/01/15 06:09:29;;;;;;;;;;;;;;;;;;5073225;28;19924;-63
2023/01/15 06:11:55;;;;;;;;;;;;;;;;;;5075251;28;19915;-63
2023/01/15 06:14:20;;;;;;;;;;;;;;;;;;5065311;28;19916;-64
2023/01/15 06:16:45;;;;;;;;;;;;;;;;;;5080316;28;20003;-64
2023/01/15 06:19:10;;;;;;;;;;;;;;;;;;5078735;28;19916;-64
2023/01/15 06:21:35;;;;;;;;;;;;;;;;;;5092834;28;19912;-64
2023/01/15 06:24:00;;;;;;;;;;;;;;;;;;5072942;28;19916;-63
2023/01/15 06:26:26;;;;;;;;;;;;;;;;;;5071848;28;19912;-63
2023/01/15 06:28:51;;;;;;;;;;;;;;;;;;5083098;28;19913;-63
2023/01/15 06:31:16;;;;;;;;;;;;;;;;;;5072061;28;19908;-63
2023/01/15 06:33:41;;;;;;;;;;;;;;;;;;5075378;28;20280;-64
2023/01/15 06:36:06;;;;;;;;;;;;;;;;;;5063778;28;20489;-63
2023/01/15 06:38:31;;;;;;;;;;;;;;;;;;5072019;28;19911;-63
2023/01/15 06:40:56;;;;;;;;;;;;;;;;;;5070230;28;20364;-64
2023/01/15 06:47:19;;;;;;;;;;;;;;;;;;5068732;28;19989;-64
2023/01/15 06:48:50;;;;;;;;;;;;;;;;;;5074803;28;19916;-64
2023/01/15 06:51:19;;;;;;;;;;;;;;;;;;5098232;28;20015;-64
2023/01/15 06:53:44;;;;;;;;;;;;;;;;;;5077368;28;19917;-64
2023/01/15 06:56:09;;;;;;;;;;;;;;;;;;5073271;28;19924;-66
2023/01/15 06:58:34;;;;;;;;;;;;;;;;;;5073043;28;19925;-64
2023/01/15 07:00:59;;;;;;;;;;;;;;;;;;5091500;28;19916;-64
2023/01/15 07:03:24;;;;;;;;;;;;;;;;;;5080592;28;19966;-64
2023/01/15 07:05:50;;;;;;;;;;;;;;;;;;5077413;28;19920;-64
2023/01/15 07:08:15;;;;;;;;;;;;;;;;;;5075008;28;19996;-64
2023/01/15 07:10:40;;;;;;;;;;;;;;;;;;5093629;28;20349;-64
2023/01/15 07:13:06;;;;;;;;;;;;;;;;;;5091173;28;19958;-65
2023/01/15 07:15:31;;;;;;;;;;;;;;;;;;5075882;28;19916;-66
2023/01/15 07:17:56;;;;;;;;;;;;;;;;;;5077140;28;19966;-64
2023/01/15 07:20:22;;;;;;;;;;;;;;;;;;5076981;28;19920;-63
2023/01/15 07:22:47;;;;;;;;;;;;;;;;;;5078737;28;19916;-63
2023/01/15 07:25:12;;;;;;;;;;;;;;;;;;5078233;28;19908;-63
2023/01/15 07:27:37;;;;;;;;;;;;;;;;;;5077727;28;20356;-63
2023/01/15 07:30:02;;;;;;;;;;;;;;;;;;5076280;28;19938;-63
2023/01/15 07:32:27;;;;;;;;;;;;;;;;;;5078706;28;19913;-63
2023/01/15 07:34:52;;;;;;;;;;;;;;;;;;5078551;28;19915;-62
2023/01/15 07:37:17;;;;;;;;;;;;;;;;;;5075026;28;19951;-63
2023/01/15 07:39:43;;;;;;;;;;;;;;;;;;5082049;28;19921;-63
2023/01/15 07:50:20;;;;;;;;;;;;;;;;;;5081554;28;20050;-63
2023/01/15 07:52:45;;;;;;;;;;;;;;;;;;5080669;28;20380;-63
2023/01/15 07:55:12;;;;;;;;;;;;;;;;;;5066317;28;20351;-63
2023/01/15 07:57:37;;;;;;;;;;;;;;;;;;5075038;28;20411;-64
2023/01/15 08:00:02;;;;;;;;;;;;;;;;;;5075531;28;20011;-63
2023/01/15 08:02:27;;;;;;;;;;;;;;;;;;5071654;28;20419;-63
2023/01/15 08:04:52;;;;;;;;;;;;;;;;;;5084465;28;20387;-64
2023/01/15 08:07:17;;;;;;;;;;;;;;;;;;5077039;28;20382;-64
2023/01/15 08:09:42;;;;;;;;;;;;;;;;;;5074674;28;19916;-64
2023/01/15 08:17:35;;;;;;;;;;;;;;;;;;5079262;28;20277;-67
2023/01/15 08:20:00;;;;;;;;;;;;;;;;;;5057025;28;19909;-66
2023/01/15 08:22:25;;;;;;;;;;;;;;;;;;5055074;28;19923;-64
2023/01/15 08:24:51;;;;;;;;;;;;;;;;;;5073718;28;19978;-67
2023/01/15 08:27:16;;;;;;;;;;;;;;;;;;5074679;28;19908;-64
2023/01/15 08:29:41;;;;;;;;;;;;;;;;;;5083617;28;19912;-67
2023/01/15 08:32:06;;;;;;;;;;;;;;;;;;5082960;28;19916;-68
2023/01/15 08:34:31;;;;;;;;;;;;;;;;;;5073647;28;20299;-66
2023/01/15 08:36:58;;;;;;;;;;;;;;;;;;5071377;28;19920;-66
2023/01/15 08:39:24;;;;;;;;;;;;;;;;;;5074855;28;19920;-68
2023/01/15 08:41:49;;;;;;;;;;;;;;;;;;5051701;28;20353;-67
2023/01/15 08:44:15;;;;;;;;;;;;;;;;;;5066880;28;19920;-67
2023/01/15 08:46:40;;;;;;;;;;;;;;;;;;5060948;28;20300;-65
2023/01/15 08:49:06;;;;;;;;;;;;;;;;;;5067757;28;19934;-66
2023/01/15 08:51:31;;;;;;;;;;;;;;;;;;5068097;28;19924;-67
2023/01/15 08:53:56;;;;;;;;;;;;;;;;;;5069418;28;19916;-65
2023/01/15 08:56:21;;;;;;;;;;;;;;;;;;5071657;28;19913;-67
2023/01/15 08:58:47;;;;;;;;;;;;;;;;;;5072264;28;19912;-65
2023/01/15 09:01:15;;;;;;;;;;;;;;;;;;5062647;28;20454;-66
2023/01/15 09:03:41;;;;;;;;;;;;;;;;;;5061318;28;19912;-66
2023/01/15 09:06:06;;;;;;;;;;;;;;;;;;5049655;28;20406;-65
2023/01/15 09:08:31;;;;;;;;;;;;;;;;;;5066362;28;20066;-66
2023/01/15 09:10:57;;;;;;;;;;;;;;;;;;5064042;28;20281;-66
2023/01/15 09:13:22;;;;;;;;;;;;;;;;;;5079454;28;20335;-66
2023/01/15 09:15:47;;;;;;;;;;;;;;;;;;5051750;28;19919;-66
2023/01/15 09:18:15;;;;;;;;;;;;;;;;;;5072024;28;20170;-66
2023/01/15 09:20:40;;;;;;;;;;;;;;;;;;5062715;28;20364;-69
2023/01/15 09:23:05;;;;;;;;;;;;;;;;;;5066873;28;20003;-68
2023/01/15 09:25:31;;;;;;;;;;;;;;;;;;5069872;28;19951;-68
2023/01/15 09:27:56;;;;;;;;;;;;;;;;;;5054522;28;20368;-69
2023/01/15 09:30:21;;;;;;;;;;;;;;;;;;5070727;28;19912;-67
2023/01/15 09:32:46;;;;;;;;;;;;;;;;;;5073643;28;19999;-68
2023/01/15 09:35:11;;;;;;;;;;;;;;;;;;5074924;28;20265;-68
2023/01/15 09:37:36;;;;;;;;;;;;;;;;;;5065969;28;19924;-68
2023/01/15 09:40:03;;;;;;;;;;;;;;;;;;5069544;28;19928;-68
2023/01/15 09:42:28;;;;;;;;;;;;;;;;;;5071405;28;20015;-68
2023/01/15 09:44:53;;;;;;;;;;;;;;;;;;5071149;28;20054;-68
2023/01/15 09:47:18;;;;;;;;;;;;;;;;;;5072057;28;19908;-69
2023/01/15 09:49:43;;;;;;;;;;;;;;;;;;5069137;28;20424;-68
2023/01/15 09:52:08;;;;;;;;;;;;;;;;;;5068904;28;19957;-68
2023/01/15 09:54:33;;;;;;;;;;;;;;;;;;5069902;28;19951;-69
2023/01/15 09:56:59;;;;;;;;;;;;;;;;;;5055143;28;20302;-69
2023/01/15 09:59:24;;;;;;;;;;;;;;;;;;5067193;28;19920;-68
2023/01/15 10:01:49;;;;;;;;;;;;;;;;;;5041333;28;19986;-63
2023/01/15 10:04:14;;;;;;;;;;;;;;;;;;5079913;28;20268;-67
2023/01/15 10:06:39;;;;;;;;;;;;;;;;;;5063451;28;19920;-68
2023/01/15 10:09:04;;;;;;;;;;;;;;;;;;5070218;28;19948;-67
2023/01/15 10:12:34;;;;;;;;;;;;;;;;;;5071884;28;19912;-68
2023/01/15 10:14:15;;;;;;;;;;;;;;;;;;5068906;28;19994;-67
2023/01/15 10:16:40;;;;;;;;;;;;;;;;;;5064262;28;19971;-68
2023/01/15 10:19:05;;;;;;;;;;;;;;;;;;5066510;28;20016;-68
2023/01/15 10:21:30;;;;;;;;;;;;;;;;;;5088689;28;19920;-68
2023/01/15 10:23:55;;;;;;;;;;;;;;;;;;5071386;28;19919;-68
2023/01/15 10:26:20;;;;;;;;;;;;;;;;;;5080932;28;20136;-68
2023/01/15 10:28:46;;;;;;;;;;;;;;;;;;5071837;28;20287;-67
2023/01/15 10:31:11;;;;;;;;;;;;;;;;;;5072324;28;20384;-68
2023/01/15 10:33:36;;;;;;;;;;;;;;;;;;5070559;28;20369;-68
2023/01/15 10:36:01;;;;;;;;;;;;;;;;;;5063802;28;19921;-66
2023/01/15 10:38:26;;;;;;;;;;;;;;;;;;5069642;28;19943;-68
2023/01/15 10:40:51;;;;;;;;;;;;;;;;;;5071755;28;19920;-68
2023/01/15 10:43:16;;;;;;;;;;;;;;;;;;5069818;28;19920;-68
2023/01/15 10:45:42;;;;;;;;;;;;;;;;;;5082893;28;19912;-68
2023/01/15 10:48:07;;;;;;;;;;;;;;;;;;5073208;28;19921;-68
2023/01/15 10:50:32;;;;;;;;;;;;;;;;;;5067662;28;20008;-68
2023/01/15 10:52:57;;;;;;;;;;;;;;;;;;5068756;28;19912;-68
2023/01/15 10:55:22;;;;;;;;;;;;;;;;;;5071053;28;19935;-67
2023/01/15 10:57:50;;;;;;;;;;;;;;;;;;5052145;28;19923;-67
2023/01/15 11:00:15;;;;;;;;;;;;;;;;;;5081533;28;20244;-68
2023/01/15 11:02:41;;;;;;;;;;;;;;;;;;5072764;28;19920;-68
2023/01/15 11:05:06;;;;;;;;;;;;;;;;;;5087216;28;20289;-68
2023/01/15 11:07:31;;;;;;;;;;;;;;;;;;5067165;28;20264;-67
2023/01/15 11:09:56;;;;;;;;;;;;;;;;;;5058776;28;19913;-68
2023/01/15 11:20:14;;;;;;;;;;;;;;;;;;5058687;28;20046;-68
2023/01/15 11:22:39;;;;;;;;;;;;;;;;;;5069410;28;20425;-68
2023/01/15 11:25:06;;;;;;;;;;;;;;;;;;5076734;28;19919;-68
2023/01/15 11:27:31;;;;;;;;;;;;;;;;;;5091934;28;19908;-68
2023/01/15 11:29:56;;;;;;;;;;;;;;;;;;5072914;28;20364;-68
2023/01/15 11:32:21;;;;;;;;;;;;;;;;;;5071991;28;20058;-67
2023/01/15 11:34:47;;;;;;;;;;;;;;;;;;5071986;28;19923;-68
2023/01/15 11:37:12;;;;;;;;;;;;;;;;;;5067827;28;20365;-68
2023/01/15 11:39:37;;;;;;;;;;;;;;;;;;5074320;28;19925;-67
2023/01/15 11:50:57;;;;;;;;;;;;;;;;;;5073222;28;20384;-67
2023/01/15 11:53:03;;;;;;;;;;;;;;;;;;5066202;28;19919;-67
2023/01/15 11:55:28;;;;;;;;;;;;;;;;;;5070883;28;19920;-68
2023/01/15 11:57:53;;;;;;;;;;;;;;;;;;5055461;28;19928;-67
2023/01/15 12:00:19;;;;;;;;;;;;;;;;;;5058776;28;20506;-66
2023/01/15 12:02:50;;;;;;;;;;;;;;;;;;5073489;28;20013;-67
2023/01/15 12:05:16;;;;;;;;;;;;;;;;;;5065161;28;20038;-67
2023/01/15 12:07:41;;;;;;;;;;;;;;;;;;5067413;28;20002;-67
2023/01/15 12:10:06;;;;;;;;;;;;;;;;;;5055717;28;19913;-67
2023/01/15 12:12:32;;;;;;;;;;;;;;;;;;5070345;28;19912;-68
2023/01/15 12:14:58;;;;;;;;;;;;;;;;;;5079164;28;19952;-67
2023/01/15 12:17:23;;;;;;;;;;;;;;;;;;5074081;28;19952;-66
2023/01/15 12:19:48;;;;;;;;;;;;;;;;;;5085907;28;20006;-69
2023/01/15 12:22:13;;;;;;;;;;;;;;;;;;5073030;28;19922;-67
2023/01/15 12:24:38;;;;;;;;;;;;;;;;;;5081716;28;20015;-68
2023/01/15 12:27:03;;;;;;;;;;;;;;;;;;5077958;28;19916;-67
2023/01/15 12:29:29;;;;;;;;;;;;;;;;;;5069229;28;19920;-68
2023/01/15 12:31:54;;;;;;;;;;;;;;;;;;5052302;28;19909;-68
2023/01/15 12:34:19;;;;;;;;;;;;;;;;;;5071549;28;19912;-68
2023/01/15 12:36:44;;;;;;;;;;;;;;;;;;5072656;28;19920;-68
2023/01/15 12:39:09;;;;;;;;;;;;;;;;;;5072412;28;20258;-68
2023/01/15 12:47:02;;;;;;;;;;;;;;;;;;5073465;28;20260;-68
2023/01/15 12:49:27;;;;;;;;;;;;;;;;;;5074568;28;19912;-69
2023/01/15 12:51:53;;;;;;;;;;;;;;;;;;5056348;28;20015;-68
2023/01/15 12:54:18;;;;;;;;;;;;;;;;;;5068308;28;19999;-69
2023/01/15 12:56:43;;;;;;;;;;;;;;;;;;5071312;28;20322;-69
2023/01/15 12:59:08;;;;;;;;;;;;;;;;;;5072681;28;19928;-68
2023/01/15 13:01:33;;;;;;;;;;;;;;;;;;5081404;28;19920;-68
2023/01/15 13:03:58;;;;;;;;;;;;;;;;;;5067149;28;20342;-69
2023/01/15 13:06:25;;;;;;;;;;;;;;;;;;5073840;28;19999;-67
2023/01/15 13:08:51;;;;;;;;;;;;;;;;;;5079052;28;19916;-67
2023/01/15 13:11:16;;;;;;;;;;;;;;;;;;5066513;28;19989;-69
2023/01/15 13:13:41;;;;;;;;;;;;;;;;;;5072134;28;19962;-68
2023/01/15 13:16:06;;;;;;;;;;;;;;;;;;5070505;28;19944;-69
2023/01/15 13:18:31;;;;;;;;;;;;;;;;;;5093827;28;19964;-69
2023/01/15 13:20:57;;;;;;;;;;;;;;;;;;5074039;28;19915;-68
2023/01/15 13:23:22;;;;;;;;;;;;;;;;;;5079240;28;19916;-69
2023/01/15 13:25:47;;;;;;;;;;;;;;;;;;5077383;28;20012;-68
2023/01/15 13:28:13;;;;;;;;;;;;;;;;;;5073434;28;19912;-68
2023/01/15 13:30:38;;;;;;;;;;;;;;;;;;5069225;28;20532;-68
2023/01/15 13:33:03;;;;;;;;;;;;;;;;;;5073224;28;19912;-69
2023/01/15 13:35:28;;;;;;;;;;;;;;;;;;5071025;28;20289;-68
2023/01/15 13:37:53;;;;;;;;;;;;;;;;;;5068194;28;19919;-68
2023/01/15 13:40:18;;;;;;;;;;;;;;;;;;5073340;28;20249;-67
2023/01/15 13:42:44;;;;;;;;;;;;;;;;;;5072218;28;20353;-67
2023/01/15 13:45:09;;;;;;;;;;;;;;;;;;5058436;28;20000;-68
2023/01/15 13:47:34;;;;;;;;;;;;;;;;;;5067384;28;19912;-68
2023/01/15 13:49:59;;;;;;;;;;;;;;;;;;5071234;28;19916;-68
2023/01/15 13:52:24;;;;;;;;;;;;;;;;;;5047974;28;19913;-67
2023/01/15 13:54:50;;;;;;;;;;;;;;;;;;5068892;28;20257;-68
2023/01/15 13:57:15;;;;;;;;;;;;;;;;;;5071320;28;20365;-54
2023/01/15 13:59:41;;;;;;;;;;;;;;;;;;5070830;28;20381;-55
2023/01/15 14:02:06;;;;;;;;;;;;;;;;;;5071132;28;19917;-62
2023/01/15 14:04:31;;;;;;;;;;;;;;;;;;5071430;28;19943;-60
2023/01/15 14:06:56;;;;;;;;;;;;;;;;;;5065642;28;19967;-55
2023/01/15 14:09:21;;;;;;;;;;;;;;;;;;5071872;28;19908;-60
2023/01/15 14:11:46;;;;;;;;;;;;;;;;;;5070764;28;19913;-60
2023/01/15 14:14:12;;;;;;;;;;;;;;;;;;5071453;28;20402;-59
2023/01/15 14:16:37;;;;;;;;;;;;;;;;;;5066485;28;20031;-51
2023/01/15 14:19:02;;;;;;;;;;;;;;;;;;5080882;28;19935;-60
2023/01/15 14:21:27;;;;;;;;;;;;;;;;;;5089102;28;19916;-59
2023/01/15 14:23:52;;;;;;;;;;;;;;;;;;5072777;28;20003;-59
2023/01/15 14:26:17;;;;;;;;;;;;;;;;;;5070797;28;19922;-58
2023/01/15 14:28:43;;;;;;;;;;;;;;;;;;5060272;28;20335;-58
2023/01/15 14:31:08;;;;;;;;;;;;;;;;;;5066571;28;19913;-60
2023/01/15 14:33:33;;;;;;;;;;;;;;;;;;5068835;28;20333;-59
2023/01/15 14:35:58;;;;;;;;;;;;;;;;;;5069925;28;20470;-57
2023/01/15 14:38:23;;;;;;;;;;;;;;;;;;5070138;28;19920;-60
2023/01/15 14:40:48;;;;;;;;;;;;;;;;;;5070939;28;19959;-60
2023/01/15 14:43:13;;;;;;;;;;;;;;;;;;5070517;28;19920;-61
2023/01/15 14:45:39;;;;;;;;;;;;;;;;;;5074370;28;19912;-54
2023/01/15 14:48:04;;;;;;;;;;;;;;;;;;5090883;28;19916;-58
2023/01/15 14:50:33;;;;;;;;;;;;;;;;;;5066217;28;19921;-54
2023/01/15 14:52:58;;;;;;;;;;;;;;;;;;5089698;28;19954;-60
2023/01/15 14:55:23;;;;;;;;;;;;;;;;;;5089534;28;19959;-58
2023/01/15 14:57:48;;;;;;;;;;;;;;;;;;5069759;28;20378;-58
2023/01/15 15:00:13;;;;;;;;;;;;;;;;;;5083359;28;19916;-57
2023/01/15 15:02:38;;;;;;;;;;;;;;;;;;5069295;28;19940;-60
2023/01/15 15:05:07;;;;;;;;;;;;;;;;;;5056117;28;19916;-57
2023/01/15 15:07:32;;;;;;;;;;;;;;;;;;5068099;28;19948;-59
2023/01/15 15:10:02;;;;;;;;;;;;;;;;;;5070436;28;19982;-59
2023/01/15 15:12:27;;;;;;;;;;;;;;;;;;5072658;28;20011;-59
2023/01/15 15:14:52;;;;;;;;;;;;;;;;;;5076288;28;20023;-59
2023/01/15 15:17:17;;;;;;;;;;;;;;;;;;5056607;28;19920;-59
2023/01/15 15:19:42;;;;;;;;;;;;;;;;;;5066738;28;19913;-60
2023/01/15 15:22:07;;;;;;;;;;;;;;;;;;5074250;28;20016;-60
2023/01/15 15:24:33;;;;;;;;;;;;;;;;;;5080375;28;19916;-59
2023/01/15 15:26:59;;;;;;;;;;;;;;;;;;5075911;28;20004;-56
2023/01/15 15:29:24;;;;;;;;;;;;;;;;;;5083347;28;20346;-58
2023/01/15 15:31:52;;;;;;;;;;;;;;;;;;5085529;28;19908;-59
2023/01/15 15:34:17;;;;;;;;;;;;;;;;;;5073957;28;19916;-61
2023/01/15 15:36:42;;;;;;;;;;;;;;;;;;5071037;28;19974;-61
2023/01/15 15:39:07;;;;;;;;;;;;;;;;;;5079374;28;19974;-61
2023/01/15 15:49:44;;;;;;;;;;;;;;;;;;5079422;28;19927;-60
2023/01/15 15:52:09;;;;;;;;;;;;;;;;;;5072345;28;19916;-62
2023/01/15 15:54:34;;;;;;;;;;;;;;;;;;5080934;28;19944;-59
2023/01/15 15:57:00;;;;;;;;;;;;;;;;;;5081091;28;20324;-62
2023/01/15 15:59:25;;;;;;;;;;;;;;;;;;5061105;28;19965;-63
2023/01/15 16:01:50;;;;;;;;;;;;;;;;;;5087223;28;19969;-59
2023/01/15 16:04:15;;;;;;;;;;;;;;;;;;5082612;28;20027;-63
2023/01/15 16:06:40;;;;;;;;;;;;;;;;;;5078635;28;19920;-59
2023/01/15 16:09:05;;;;;;;;;;;;;;;;;;5085710;28;20248;-56
2023/01/15 16:11:31;;;;;;;;;;;;;;;;;;5080908;28;20318;-58
2023/01/15 16:13:56;;;;;;;;;;;;;;;;;;5073480;28;19909;-59
2023/01/15 16:16:21;;;;;;;;;;;;;;;;;;5077119;28;20303;-59
2023/01/15 16:18:46;;;;;;;;;;;;;;;;;;5074241;28;19912;-58
2023/01/15 16:21:11;;;;;;;;;;;;;;;;;;5072674;28;19912;-56
2023/01/15 16:23:36;;;;;;;;;;;;;;;;;;5071027;28;19923;-56
2023/01/15 16:26:02;;;;;;;;;;;;;;;;;;5090788;28;19912;-55
2023/01/15 16:28:27;;;;;;;;;;;;;;;;;;5080799;28;19928;-59
2023/01/15 16:30:52;;;;;;;;;;;;;;;;;;5079230;28;19913;-59
2023/01/15 16:33:18;;;;;;;;;;;;;;;;;;5070084;28;19959;-55
2023/01/15 16:35:43;;;;;;;;;;;;;;;;;;5077366;28;19920;-51
2023/01/15 16:38:11;;;;;;;;;;;;;;;;;;5072306;28;19924;-58
2023/01/15 16:40:36;;;;;;;;;;;;;;;;;;5073467;28;20119;-61
2023/01/15 16:43:01;;;;;;;;;;;;;;;;;;5055551;28;19920;-62
2023/01/15 16:45:27;;;;;;;;;;;;;;;;;;5053608;28;19935;-64
2023/01/15 16:47:52;;;;;;;;;;;;;;;;;;5050895;28;20348;-63
2023/01/15 16:50:17;;;;;;;;;;;;;;;;;;5053048;28;19913;-61
2023/01/15 16:52:42;;;;;;;;;;;;;;;;;;5031474;28;19958;-60
2023/01/15 16:55:07;;;;;;;;;;;;;;;;;;5063381;28;19915;-60
2023/01/15 16:57:34;;;;;;;;;;;;;;;;;;5073713;28;19971;-62
2023/01/15 16:59:59;;;;;;;;;;;;;;;;;;5066778;28;20388;-59
2023/01/15 17:02:28;;;;;;;;;;;;;;;;;;5049058;28;19917;-60
2023/01/15 17:04:53;;;;;;;;;;;;;;;;;;5051042;28;19944;-62
2023/01/15 17:07:19;;;;;;;;;;;;;;;;;;5049664;28;20002;-62
2023/01/15 17:09:44;;;;;;;;;;;;;;;;;;5037919;28;19920;-60
2023/01/15 17:12:09;;;;;;;;;;;;;;;;;;5048949;28;20012;-61
2023/01/15 17:14:34;;;;;;;;;;;;;;;;;;5033457;28;19913;-59
2023/01/15 17:17:00;;;;;;;;;;;;;;;;;;5052890;28;19952;-60
2023/01/15 17:19:25;;;;;;;;;;;;;;;;;;5049924;28;20373;-54
2023/01/15 17:21:50;;;;;;;;;;;;;;;;;;5047968;28;20003;-55
2023/01/15 17:24:15;;;;;;;;;;;;;;;;;;5052673;28;19909;-56